sensor_id;sensor_type;location;lat;lon;timestamp;temperature;humidity
22666;DHT22;11499;49.486;11.104;2023-04-03T00:01:29;3.90;94.40
22666;DHT22;11499;49.486;11.104;2023-04-03T00:03:55;3.90;94.30
22666;DHT22;11499;49.486;11.104;2023-04-03T00:06:21;3.90;94.20
22666;DHT22;11499;49.486;11.104;2023-04-03T00:08:46;3.90;94.30
22666;DHT22;11499;49.486;11.104;2023-04-03T00:11:12;3.90;94.30
22666;DHT22;11499;49.486;11.104;2023-04-03T00:13:38;3.70;94.40
22666;DHT22;11499;49.486;11.104;2023-04-03T00:16:05;3.70;94.50
22666;DHT22;11499;49.486;11.104;2023-04-03T00:18:31;3.60;94.80
22666;DHT22;11499;49.486;11.104;2023-04-03T00:23:53;3.70;94.80
22666;DHT22;11499;49.486;11.104;2023-04-03T00:26:18;3.60;95.00
22666;DHT22;11499;49.486;11.104;2023-04-03T00:28:44;3.50;95.30
22666;DHT22;11499;49.486;11.104;2023-04-03T00:31:09;3.60;95.40
22666;DHT22;11499;49.486;11.104;2023-04-03T00:33:35;3.50;95.40
22666;DHT22;11499;49.486;11.104;2023-04-03T00:36:06;3.50;95.50
22666;DHT22;11499;49.486;11.104;2023-04-03T00:38:32;3.50;95.30
22666;DHT22;11499;49.486;11.104;2023-04-03T00:40:57;3.40;95.50
22666;DHT22;11499;49.486;11.104;2023-04-03T00:43:24;3.40;95.50
22666;DHT22;11499;49.486;11.104;2023-04-03T00:45:53;3.40;95.30
22666;DHT22;11499;49.486;11.104;2023-04-03T00:51:28;3.30;95.60
22666;DHT22;11499;49.486;11.104;2023-04-03T00:53:58;3.40;95.90
22666;DHT22;11499;49.486;11.104;2023-04-03T00:56:27;3.40;95.70
22666;DHT22;11499;49.486;11.104;2023-04-03T00:59:08;3.40;95.70
22666;DHT22;11499;49.486;11.104;2023-04-03T01:01:36;3.40;95.60
22666;DHT22;11499;49.486;11.104;2023-04-03T01:04:03;3.40;95.30
22666;DHT22;11499;49.486;11.104;2023-04-03T01:06:34;3.50;95.50
22666;DHT22;11499;49.486;11.104;2023-04-03T01:09:01;3.50;95.20
22666;DHT22;11499;49.486;11.104;2023-04-03T01:11:27;3.50;95.20
22666;DHT22;11499;49.486;11.104;2023-04-03T01:13:53;3.60;94.90
22666;DHT22;11499;49.486;11.104;2023-04-03T01:19:00;3.50;94.90
22666;DHT22;11499;49.486;11.104;2023-04-03T01:24:37;3.40;95.30
22666;DHT22;11499;49.486;11.104;2023-04-03T01:27:06;3.40;95.20
22666;DHT22;11499;49.486;11.104;2023-04-03T01:29:33;3.30;95.70
22666;DHT22;11499;49.486;11.104;2023-04-03T01:32:01;3.20;95.60
22666;DHT22;11499;49.486;11.104;2023-04-03T01:34:28;3.20;95.80
22666;DHT22;11499;49.486;11.104;2023-04-03T01:36:54;3.10;95.90
22666;DHT22;11499;49.486;11.104;2023-04-03T01:39:20;3.10;96.00
22666;DHT22;11499;49.486;11.104;2023-04-03T01:41:46;3.10;95.70
22666;DHT22;11499;49.486;11.104;2023-04-03T01:46:30;3.00;95.80
22666;DHT22;11499;49.486;11.104;2023-04-03T01:48:56;2.80;96.20
22666;DHT22;11499;49.486;11.104;2023-04-03T01:51:22;2.80;96.00
22666;DHT22;11499;49.486;11.104;2023-04-03T01:53:47;2.70;96.30
22666;DHT22;11499;49.486;11.104;2023-04-03T01:56:12;2.70;96.50
22666;DHT22;11499;49.486;11.104;2023-04-03T01:58:38;2.60;96.60
22666;DHT22;11499;49.486;11.104;2023-04-03T02:01:04;2.50;96.90
22666;DHT22;11499;49.486;11.104;2023-04-03T02:03:29;2.40;96.90
22666;DHT22;11499;49.486;11.104;2023-04-03T02:05:56;2.60;97.00
22666;DHT22;11499;49.486;11.104;2023-04-03T02:08:22;2.40;97.00
22666;DHT22;11499;49.486;11.104;2023-04-03T02:13:31;2.30;97.20
22666;DHT22;11499;49.486;11.104;2023-04-03T02:15:57;2.30;97.40
22666;DHT22;11499;49.486;11.104;2023-04-03T02:18:22;2.30;97.70
22666;DHT22;11499;49.486;11.104;2023-04-03T02:20:47;2.20;97.60
22666;DHT22;11499;49.486;11.104;2023-04-03T02:23:13;2.20;98.10
22666;DHT22;11499;49.486;11.104;2023-04-03T02:25:38;2.30;98.30
22666;DHT22;11499;49.486;11.104;2023-04-03T02:28:05;2.20;98.50
22666;DHT22;11499;49.486;11.104;2023-04-03T02:30:30;2.20;98.40
22666;DHT22;11499;49.486;11.104;2023-04-03T02:32:56;2.20;98.50
22666;DHT22;11499;49.486;11.104;2023-04-03T02:35:21;2.10;98.60
22666;DHT22;11499;49.486;11.104;2023-04-03T02:40:45;2.10;99.30
22666;DHT22;11499;49.486;11.104;2023-04-03T02:43:11;2.00;99.30
22666;DHT22;11499;49.486;11.104;2023-04-03T02:45:36;2.00;99.50
22666;DHT22;11499;49.486;11.104;2023-04-03T02:48:02;2.00;99.90
22666;DHT22;11499;49.486;11.104;2023-04-03T02:50:27;2.00;99.90
22666;DHT22;11499;49.486;11.104;2023-04-03T02:52:53;2.00;99.90
22666;DHT22;11499;49.486;11.104;2023-04-03T02:55:18;2.00;99.90
22666;DHT22;11499;49.486;11.104;2023-04-03T02:57:44;1.90;99.90
22666;DHT22;11499;49.486;11.104;2023-04-03T03:00:10;2.00;99.90
22666;DHT22;11499;49.486;11.104;2023-04-03T03:02:35;2.00;99.90
22666;DHT22;11499;49.486;11.104;2023-04-03T03:08:03;2.00;99.90
22666;DHT22;11499;49.486;11.104;2023-04-03T03:10:28;2.00;99.90
22666;DHT22;11499;49.486;11.104;2023-04-03T03:12:54;2.00;99.90
22666;DHT22;11499;49.486;11.104;2023-04-03T03:15:19;2.10;99.90
22666;DHT22;11499;49.486;11.104;2023-04-03T03:17:45;1.90;99.90
22666;DHT22;11499;49.486;11.104;2023-04-03T03:20:11;1.90;99.90
22666;DHT22;11499;49.486;11.104;2023-04-03T03:22:37;2.00;99.90
22666;DHT22;11499;49.486;11.104;2023-04-03T03:25:03;2.00;99.90
22666;DHT22;11499;49.486;11.104;2023-04-03T03:27:29;2.10;99.90
22666;DHT22;11499;49.486;11.104;2023-04-03T03:29:54;2.10;99.90
22666;DHT22;11499;49.486;11.104;2023-04-03T03:35:08;2.10;99.90
22666;DHT22;11499;49.486;11.104;2023-04-03T03:37:34;2.10;99.90
22666;DHT22;11499;49.486;11.104;2023-04-03T03:39:59;2.20;99.90
22666;DHT22;11499;49.486;11.104;2023-04-03T03:42:25;2.20;99.90
22666;DHT22;11499;49.486;11.104;2023-04-03T03:44:50;2.20;99.90
22666;DHT22;11499;49.486;11.104;2023-04-03T03:47:17;2.20;99.90
22666;DHT22;11499;49.486;11.104;2023-04-03T03:49:42;2.30;99.90
22666;DHT22;11499;49.486;11.104;2023-04-03T03:52:08;2.40;99.90
22666;DHT22;11499;49.486;11.104;2023-04-03T03:54:36;2.20;99.90
22666;DHT22;11499;49.486;11.104;2023-04-03T03:57:01;2.40;99.90
22666;DHT22;11499;49.486;11.104;2023-04-03T04:02:09;2.40;99.90
22666;DHT22;11499;49.486;11.104;2023-04-03T04:04:34;2.40;99.90
22666;DHT22;11499;49.486;11.104;2023-04-03T04:06:59;2.40;99.90
22666;DHT22;11499;49.486;11.104;2023-04-03T04:09:26;2.40;99.90
22666;DHT22;11499;49.486;11.104;2023-04-03T04:11:52;2.40;99.90
22666;DHT22;11499;49.486;11.104;2023-04-03T04:14:17;2.40;99.90
22666;DHT22;11499;49.486;11.104;2023-04-03T04:16:43;2.40;99.90
22666;DHT22;11499;49.486;11.104;2023-04-03T04:19:08;2.40;99.90
22666;DHT22;11499;49.486;11.104;2023-04-03T04:21:34;2.30;99.90
22666;DHT22;11499;49.486;11.104;2023-04-03T04:24:00;2.30;99.90
22666;DHT22;11499;49.486;11.104;2023-04-03T04:29:28;2.20;99.90
22666;DHT22;11499;49.486;11.104;2023-04-03T04:31:53;2.20;99.90
22666;DHT22;11499;49.486;11.104;2023-04-03T04:34:19;2.10;99.90
22666;DHT22;11499;49.486;11.104;2023-04-03T04:36:44;2.10;99.90
22666;DHT22;11499;49.486;11.104;2023-04-03T04:39:10;2.00;99.90
22666;DHT22;11499;49.486;11.104;2023-04-03T04:41:35;2.10;99.90
22666;DHT22;11499;49.486;11.104;2023-04-03T04:44:01;1.90;99.90
22666;DHT22;11499;49.486;11.104;2023-04-03T04:46:26;1.90;99.90
22666;DHT22;11499;49.486;11.104;2023-04-03T04:48:52;1.90;99.90
22666;DHT22;11499;49.486;11.104;2023-04-03T04:51:18;1.90;99.90
22666;DHT22;11499;49.486;11.104;2023-04-03T04:56:42;1.80;99.90
22666;DHT22;11499;49.486;11.104;2023-04-03T04:59:07;1.80;99.90
22666;DHT22;11499;49.486;11.104;2023-04-03T05:01:36;1.80;99.90
22666;DHT22;11499;49.486;11.104;2023-04-03T05:04:01;1.70;99.90
22666;DHT22;11499;49.486;11.104;2023-04-03T05:06:27;1.70;99.90
22666;DHT22;11499;49.486;11.104;2023-04-03T05:08:52;1.80;99.90
22666;DHT22;11499;49.486;11.104;2023-04-03T05:11:18;1.80;99.90
22666;DHT22;11499;49.486;11.104;2023-04-03T05:13:43;1.80;99.90
22666;DHT22;11499;49.486;11.104;2023-04-03T05:16:09;1.80;99.90
22666;DHT22;11499;49.486;11.104;2023-04-03T05:18:34;1.90;99.90
22666;DHT22;11499;49.486;11.104;2023-04-03T05:23:59;2.00;99.90
22666;DHT22;11499;49.486;11.104;2023-04-03T05:26:30;2.10;99.90
22666;DHT22;11499;49.486;11.104;2023-04-03T05:28:56;2.20;99.90
22666;DHT22;11499;49.486;11.104;2023-04-03T05:31:21;2.30;99.90
22666;DHT22;11499;49.486;11.104;2023-04-03T05:33:47;2.50;99.90
22666;DHT22;11499;49.486;11.104;2023-04-03T05:36:13;3.00;99.90
22666;DHT22;11499;49.486;11.104;2023-04-03T05:38:39;3.10;99.90
22666;DHT22;11499;49.486;11.104;2023-04-03T05:41:04;3.30;99.90
22666;DHT22;11499;49.486;11.104;2023-04-03T05:43:30;2.90;99.90
22666;DHT22;11499;49.486;11.104;2023-04-03T05:49:14;2.80;99.90
22666;DHT22;11499;49.486;11.104;2023-04-03T05:51:40;2.70;99.90
22666;DHT22;11499;49.486;11.104;2023-04-03T05:54:14;2.90;99.90
22666;DHT22;11499;49.486;11.104;2023-04-03T05:56:41;2.70;99.90
22666;DHT22;11499;49.486;11.104;2023-04-03T05:59:07;2.80;99.90
22666;DHT22;11499;49.486;11.104;2023-04-03T06:01:32;3.00;99.90
22666;DHT22;11499;49.486;11.104;2023-04-03T06:03:59;3.00;99.90
22666;DHT22;11499;49.486;11.104;2023-04-03T06:06:25;3.00;99.90
22666;DHT22;11499;49.486;11.104;2023-04-03T06:08:51;3.10;99.90
22666;DHT22;11499;49.486;11.104;2023-04-03T06:11:17;3.10;99.90
22666;DHT22;11499;49.486;11.104;2023-04-03T06:16:25;3.00;99.90
22666;DHT22;11499;49.486;11.104;2023-04-03T06:18:51;3.30;99.90
22666;DHT22;11499;49.486;11.104;2023-04-03T06:21:16;3.50;99.90
22666;DHT22;11499;49.486;11.104;2023-04-03T06:23:42;3.30;99.90
22666;DHT22;11499;49.486;11.104;2023-04-03T06:26:07;3.60;99.90
22666;DHT22;11499;49.486;11.104;2023-04-03T06:28:33;3.50;99.90
22666;DHT22;11499;49.486;11.104;2023-04-03T06:30:59;3.40;99.90
22666;DHT22;11499;49.486;11.104;2023-04-03T06:33:24;3.30;99.90
22666;DHT22;11499;49.486;11.104;2023-04-03T06:35:56;3.30;99.90
22666;DHT22;11499;49.486;11.104;2023-04-03T06:38:22;3.50;99.90
22666;DHT22;11499;49.486;11.104;2023-04-03T06:40:47;3.30;99.90
22666;DHT22;11499;49.486;11.104;2023-04-03T06:43:13;3.20;99.90
22666;DHT22;11499;49.486;11.104;2023-04-03T06:47:41;3.30;99.90
22666;DHT22;11499;49.486;11.104;2023-04-03T06:50:06;3.40;99.90
22666;DHT22;11499;49.486;11.104;2023-04-03T06:52:32;3.50;99.90
22666;DHT22;11499;49.486;11.104;2023-04-03T06:54:58;3.50;99.90
22666;DHT22;11499;49.486;11.104;2023-04-03T06:57:25;3.50;99.90
22666;DHT22;11499;49.486;11.104;2023-04-03T06:59:50;3.50;99.90
22666;DHT22;11499;49.486;11.104;2023-04-03T07:02:17;3.40;99.90
22666;DHT22;11499;49.486;11.104;2023-04-03T07:04:42;3.60;99.90
22666;DHT22;11499;49.486;11.104;2023-04-03T07:07:08;3.70;99.90
22666;DHT22;11499;49.486;11.104;2023-04-03T07:09:33;3.90;99.90
22666;DHT22;11499;49.486;11.104;2023-04-03T07:11:59;3.90;99.90
22666;DHT22;11499;49.486;11.104;2023-04-03T07:14:25;3.90;99.90
22666;DHT22;11499;49.486;11.104;2023-04-03T07:19:11;3.90;99.40
22666;DHT22;11499;49.486;11.104;2023-04-03T07:21:37;3.70;99.60
22666;DHT22;11499;49.486;11.104;2023-04-03T07:24:02;3.70;99.20
22666;DHT22;11499;49.486;11.104;2023-04-03T07:26:28;4.00;99.10
22666;DHT22;11499;49.486;11.104;2023-04-03T07:28:53;3.80;98.70
22666;DHT22;11499;49.486;11.104;2023-04-03T07:31:19;3.90;99.10
22666;DHT22;11499;49.486;11.104;2023-04-03T07:33:45;3.80;98.60
22666;DHT22;11499;49.486;11.104;2023-04-03T07:36:15;4.00;98.50
22666;DHT22;11499;49.486;11.104;2023-04-03T07:38:41;3.90;98.10
22666;DHT22;11499;49.486;11.104;2023-04-03T07:41:06;4.10;98.30
22666;DHT22;11499;49.486;11.104;2023-04-03T07:46:27;4.20;98.00
22666;DHT22;11499;49.486;11.104;2023-04-03T07:48:53;4.40;96.80
22666;DHT22;11499;49.486;11.104;2023-04-03T07:51:18;4.50;96.80
22666;DHT22;11499;49.486;11.104;2023-04-03T07:53:44;4.90;96.70
22666;DHT22;11499;49.486;11.104;2023-04-03T07:56:10;5.00;96.00
22666;DHT22;11499;49.486;11.104;2023-04-03T07:58:36;5.10;95.00
22666;DHT22;11499;49.486;11.104;2023-04-03T08:01:02;5.10;95.20
22666;DHT22;11499;49.486;11.104;2023-04-03T08:03:28;4.80;94.60
22666;DHT22;11499;49.486;11.104;2023-04-03T08:05:53;5.00;94.40
22666;DHT22;11499;49.486;11.104;2023-04-03T08:08:21;5.20;94.30
22666;DHT22;11499;49.486;11.104;2023-04-03T08:13:23;5.30;93.70
22666;DHT22;11499;49.486;11.104;2023-04-03T08:15:50;5.10;93.50
22666;DHT22;11499;49.486;11.104;2023-04-03T08:18:16;4.90;93.60
22666;DHT22;11499;49.486;11.104;2023-04-03T08:20:42;5.00;92.80
22666;DHT22;11499;49.486;11.104;2023-04-03T08:23:08;4.90;93.10
22666;DHT22;11499;49.486;11.104;2023-04-03T08:25:41;5.20;92.50
22666;DHT22;11499;49.486;11.104;2023-04-03T08:28:07;5.20;91.80
22666;DHT22;11499;49.486;11.104;2023-04-03T08:30:34;5.50;91.60
22666;DHT22;11499;49.486;11.104;2023-04-03T08:33:02;5.60;90.70
22666;DHT22;11499;49.486;11.104;2023-04-03T08:35:28;5.10;91.30
22666;DHT22;11499;49.486;11.104;2023-04-03T08:40:34;5.20;91.30
22666;DHT22;11499;49.486;11.104;2023-04-03T08:45:53;4.80;84.50
22666;DHT22;11499;49.486;11.104;2023-04-03T08:48:26;4.70;85.30
22666;DHT22;11499;49.486;11.104;2023-04-03T08:50:59;4.90;83.70
22666;DHT22;11499;49.486;11.104;2023-04-03T08:53:29;4.90;82.10
22666;DHT22;11499;49.486;11.104;2023-04-03T08:55:58;4.80;81.90
22666;DHT22;11499;49.486;11.104;2023-04-03T08:58:30;4.70;83.70
22666;DHT22;11499;49.486;11.104;2023-04-03T09:01:05;4.80;82.80
22666;DHT22;11499;49.486;11.104;2023-04-03T09:03:34;4.70;83.30
22666;DHT22;11499;49.486;11.104;2023-04-03T09:08:40;4.90;83.90
22666;DHT22;11499;49.486;11.104;2023-04-03T09:12:00;4.90;85.20
22666;DHT22;11499;49.486;11.104;2023-04-03T09:14:07;5.10;83.10
22666;DHT22;11499;49.486;11.104;2023-04-03T09:16:54;4.80;82.90
22666;DHT22;11499;49.486;11.104;2023-04-03T09:21:57;5.30;81.60
22666;DHT22;11499;49.486;11.104;2023-04-03T09:24:23;5.50;79.50
22666;DHT22;11499;49.486;11.104;2023-04-03T09:27:03;5.50;76.20
22666;DHT22;11499;49.486;11.104;2023-04-03T09:29:29;5.50;77.50
22666;DHT22;11499;49.486;11.104;2023-04-03T09:32:01;5.20;77.70
22666;DHT22;11499;49.486;11.104;2023-04-03T09:35:53;5.30;76.70
22666;DHT22;11499;49.486;11.104;2023-04-03T09:38:21;5.00;75.20
22666;DHT22;11499;49.486;11.104;2023-04-03T09:41:04;4.90;75.40
22666;DHT22;11499;49.486;11.104;2023-04-03T09:43:31;5.00;74.70
22666;DHT22;11499;49.486;11.104;2023-04-03T09:46:18;4.90;74.60
22666;DHT22;11499;49.486;11.104;2023-04-03T09:49:03;5.10;74.80
22666;DHT22;11499;49.486;11.104;2023-04-03T09:51:29;5.40;74.30
22666;DHT22;11499;49.486;11.104;2023-04-03T09:53:55;5.40;73.00
22666;DHT22;11499;49.486;11.104;2023-04-03T09:56:27;5.40;73.20
22666;DHT22;11499;49.486;11.104;2023-04-03T09:59:08;5.60;71.60
22666;DHT22;11499;49.486;11.104;2023-04-03T10:03:34;5.60;70.20
22666;DHT22;11499;49.486;11.104;2023-04-03T10:06:02;5.60;69.10
22666;DHT22;11499;49.486;11.104;2023-04-03T10:08:33;5.80;68.70
22666;DHT22;11499;49.486;11.104;2023-04-03T10:13:35;6.10;67.90
22666;DHT22;11499;49.486;11.104;2023-04-03T10:16:07;6.90;66.40
22666;DHT22;11499;49.486;11.104;2023-04-03T10:29:50;6.90;62.50
22666;DHT22;11499;49.486;11.104;2023-04-03T10:40:50;7.30;59.10
22666;DHT22;11499;49.486;11.104;2023-04-03T10:46:06;6.40;58.60
22666;DHT22;11499;49.486;11.104;2023-04-03T10:56:37;6.60;58.60
22666;DHT22;11499;49.486;11.104;2023-04-03T11:01:46;7.00;59.10
22666;DHT22;11499;49.486;11.104;2023-04-03T11:04:15;6.70;57.00
22666;DHT22;11499;49.486;11.104;2023-04-03T11:06:46;6.50;57.00
22666;DHT22;11499;49.486;11.104;2023-04-03T11:11:48;6.50;54.80
22666;DHT22;11499;49.486;11.104;2023-04-03T11:14:34;6.30;55.60
22666;DHT22;11499;49.486;11.104;2023-04-03T11:17:15;6.20;55.40
22666;DHT22;11499;49.486;11.104;2023-04-03T11:25:31;6.20;54.80
22666;DHT22;11499;49.486;11.104;2023-04-03T11:28:00;6.90;56.50
22666;DHT22;11499;49.486;11.104;2023-04-03T11:36:12;7.10;55.00
22666;DHT22;11499;49.486;11.104;2023-04-03T11:38:43;7.00;55.90
22666;DHT22;11499;49.486;11.104;2023-04-03T11:41:10;6.30;56.50
22666;DHT22;11499;49.486;11.104;2023-04-03T11:44:42;6.10;57.20
22666;DHT22;11499;49.486;11.104;2023-04-03T11:46:50;6.20;55.90
22666;DHT22;11499;49.486;11.104;2023-04-03T12:11:29;7.00;55.60
22666;DHT22;11499;49.486;11.104;2023-04-03T12:18:58;6.80;56.50
22666;DHT22;11499;49.486;11.104;2023-04-03T12:34:43;6.40;55.70
22666;DHT22;11499;49.486;11.104;2023-04-03T12:48:14;6.90;53.80
22666;DHT22;11499;49.486;11.104;2023-04-03T12:50:41;7.00;52.20
22666;DHT22;11499;49.486;11.104;2023-04-03T12:53:13;7.00;52.40
22666;DHT22;11499;49.486;11.104;2023-04-03T12:55:39;6.80;52.40
22666;DHT22;11499;49.486;11.104;2023-04-03T12:58:26;6.70;53.40
22666;DHT22;11499;49.486;11.104;2023-04-03T13:01:13;6.90;53.10
22666;DHT22;11499;49.486;11.104;2023-04-03T13:03:43;7.20;53.70
22666;DHT22;11499;49.486;11.104;2023-04-03T13:06:23;7.30;54.20
22666;DHT22;11499;49.486;11.104;2023-04-03T13:08:52;7.10;55.40
22666;DHT22;11499;49.486;11.104;2023-04-03T13:15:23;7.00;55.60
22666;DHT22;11499;49.486;11.104;2023-04-03T13:17:50;7.00;54.10
22666;DHT22;11499;49.486;11.104;2023-04-03T13:20:21;7.10;54.40
22666;DHT22;11499;49.486;11.104;2023-04-03T13:23:04;7.50;53.80
22666;DHT22;11499;49.486;11.104;2023-04-03T13:25:33;7.70;52.70
22666;DHT22;11499;49.486;11.104;2023-04-03T13:28:01;7.80;52.20
22666;DHT22;11499;49.486;11.104;2023-04-03T13:33:00;7.20;54.20
22666;DHT22;11499;49.486;11.104;2023-04-03T13:35:38;7.40;55.60
22666;DHT22;11499;49.486;11.104;2023-04-03T13:40:52;7.20;54.50
22666;DHT22;11499;49.486;11.104;2023-04-03T13:43:24;7.00;53.90
22666;DHT22;11499;49.486;11.104;2023-04-03T13:48:27;7.30;54.40
22666;DHT22;11499;49.486;11.104;2023-04-03T13:51:02;7.20;54.20
22666;DHT22;11499;49.486;11.104;2023-04-03T13:53:30;7.20;55.00
22666;DHT22;11499;49.486;11.104;2023-04-03T13:58:25;7.70;54.10
22666;DHT22;11499;49.486;11.104;2023-04-03T14:00:53;7.10;53.80
22666;DHT22;11499;49.486;11.104;2023-04-03T14:03:29;7.00;53.70
22666;DHT22;11499;49.486;11.104;2023-04-03T14:08:32;6.70;52.30
22666;DHT22;11499;49.486;11.104;2023-04-03T14:10:57;6.80;52.80
22666;DHT22;11499;49.486;11.104;2023-04-03T14:13:23;6.70;52.70
22666;DHT22;11499;49.486;11.104;2023-04-03T14:15:49;6.80;53.30
22666;DHT22;11499;49.486;11.104;2023-04-03T14:18:18;7.10;54.30
22666;DHT22;11499;49.486;11.104;2023-04-03T14:20:45;6.90;53.30
22666;DHT22;11499;49.486;11.104;2023-04-03T14:23:10;7.10;54.40
22666;DHT22;11499;49.486;11.104;2023-04-03T14:25:36;7.50;52.80
22666;DHT22;11499;49.486;11.104;2023-04-03T14:28:14;7.20;52.20
22666;DHT22;11499;49.486;11.104;2023-04-03T14:33:46;7.20;53.30
22666;DHT22;11499;49.486;11.104;2023-04-03T14:36:17;6.80;53.00
22666;DHT22;11499;49.486;11.104;2023-04-03T14:38:44;6.70;53.80
22666;DHT22;11499;49.486;11.104;2023-04-03T14:41:12;6.70;53.50
22666;DHT22;11499;49.486;11.104;2023-04-03T14:43:39;6.60;53.60
22666;DHT22;11499;49.486;11.104;2023-04-03T14:46:05;6.70;54.20
22666;DHT22;11499;49.486;11.104;2023-04-03T14:48:35;6.90;53.30
22666;DHT22;11499;49.486;11.104;2023-04-03T14:51:01;7.20;52.90
22666;DHT22;11499;49.486;11.104;2023-04-03T14:53:26;7.20;52.40
22666;DHT22;11499;49.486;11.104;2023-04-03T14:55:54;7.40;52.00
22666;DHT22;11499;49.486;11.104;2023-04-03T15:00:16;7.30;52.50
22666;DHT22;11499;49.486;11.104;2023-04-03T15:02:42;7.40;52.30
22666;DHT22;11499;49.486;11.104;2023-04-03T15:05:10;6.90;52.10
22666;DHT22;11499;49.486;11.104;2023-04-03T15:07:39;6.70;52.90
22666;DHT22;11499;49.486;11.104;2023-04-03T15:10:28;6.50;52.00
22666;DHT22;11499;49.486;11.104;2023-04-03T15:12:55;6.40;52.20
22666;DHT22;11499;49.486;11.104;2023-04-03T15:15:22;6.40;52.20
22666;DHT22;11499;49.486;11.104;2023-04-03T15:17:51;6.20;52.70
22666;DHT22;11499;49.486;11.104;2023-04-03T15:20:22;6.20;52.70
22666;DHT22;11499;49.486;11.104;2023-04-03T15:22:48;6.50;53.20
22666;DHT22;11499;49.486;11.104;2023-04-03T15:25:14;6.80;53.40
22666;DHT22;11499;49.486;11.104;2023-04-03T15:30:38;6.90;52.10
22666;DHT22;11499;49.486;11.104;2023-04-03T15:33:05;7.00;52.70
22666;DHT22;11499;49.486;11.104;2023-04-03T15:35:31;6.90;52.80
22666;DHT22;11499;49.486;11.104;2023-04-03T15:37:56;6.70;52.50
22666;DHT22;11499;49.486;11.104;2023-04-03T15:40:22;6.30;52.00
22666;DHT22;11499;49.486;11.104;2023-04-03T15:42:47;6.20;52.50
22666;DHT22;11499;49.486;11.104;2023-04-03T15:45:13;6.10;53.00
22666;DHT22;11499;49.486;11.104;2023-04-03T15:47:38;6.10;53.20
22666;DHT22;11499;49.486;11.104;2023-04-03T15:50:04;6.00;52.80
22666;DHT22;11499;49.486;11.104;2023-04-03T15:52:32;6.10;53.20
22666;DHT22;11499;49.486;11.104;2023-04-03T15:57:38;5.90;52.80
22666;DHT22;11499;49.486;11.104;2023-04-03T16:00:06;5.80;53.00
22666;DHT22;11499;49.486;11.104;2023-04-03T16:02:32;5.80;52.70
22666;DHT22;11499;49.486;11.104;2023-04-03T16:04:59;5.80;52.80
22666;DHT22;11499;49.486;11.104;2023-04-03T16:07:24;5.90;53.50
22666;DHT22;11499;49.486;11.104;2023-04-03T16:09:50;5.90;52.90
22666;DHT22;11499;49.486;11.104;2023-04-03T16:12:15;5.90;53.10
22666;DHT22;11499;49.486;11.104;2023-04-03T16:14:40;5.90;53.30
22666;DHT22;11499;49.486;11.104;2023-04-03T16:17:06;5.80;52.90
22666;DHT22;11499;49.486;11.104;2023-04-03T16:19:31;5.90;53.60
22666;DHT22;11499;49.486;11.104;2023-04-03T16:24:39;5.70;52.60
22666;DHT22;11499;49.486;11.104;2023-04-03T16:27:05;5.80;53.10
22666;DHT22;11499;49.486;11.104;2023-04-03T16:29:31;5.70;52.80
22666;DHT22;11499;49.486;11.104;2023-04-03T16:31:57;5.60;53.30
22666;DHT22;11499;49.486;11.104;2023-04-03T16:34:23;5.60;53.50
22666;DHT22;11499;49.486;11.104;2023-04-03T16:36:51;5.50;53.70
22666;DHT22;11499;49.486;11.104;2023-04-03T16:39:17;5.50;53.90
22666;DHT22;11499;49.486;11.104;2023-04-03T16:41:43;5.40;54.10
22666;DHT22;11499;49.486;11.104;2023-04-03T16:44:09;5.40;54.10
22666;DHT22;11499;49.486;11.104;2023-04-03T16:46:35;5.40;54.20
22666;DHT22;11499;49.486;11.104;2023-04-03T16:49:00;5.30;53.50
22666;DHT22;11499;49.486;11.104;2023-04-03T16:51:26;5.30;54.30
22666;DHT22;11499;49.486;11.104;2023-04-03T16:55:57;5.20;54.00
22666;DHT22;11499;49.486;11.104;2023-04-03T16:58:23;5.10;53.90
22666;DHT22;11499;49.486;11.104;2023-04-03T17:00:48;5.00;53.90
22666;DHT22;11499;49.486;11.104;2023-04-03T17:03:14;4.90;53.80
22666;DHT22;11499;49.486;11.104;2023-04-03T17:05:39;4.80;53.90
22666;DHT22;11499;49.486;11.104;2023-04-03T17:08:05;4.80;54.10
22666;DHT22;11499;49.486;11.104;2023-04-03T17:10:30;4.70;54.60
22666;DHT22;11499;49.486;11.104;2023-04-03T17:12:56;4.70;54.80
22666;DHT22;11499;49.486;11.104;2023-04-03T17:15:22;4.70;55.00
22666;DHT22;11499;49.486;11.104;2023-04-03T17:17:49;4.70;55.30
22666;DHT22;11499;49.486;11.104;2023-04-03T17:23:04;4.80;55.30
22666;DHT22;11499;49.486;11.104;2023-04-03T17:25:30;4.90;54.30
22666;DHT22;11499;49.486;11.104;2023-04-03T17:27:55;5.00;53.90
22666;DHT22;11499;49.486;11.104;2023-04-03T17:30:21;5.10;53.80
22666;DHT22;11499;49.486;11.104;2023-04-03T17:32:46;4.90;53.90
22666;DHT22;11499;49.486;11.104;2023-04-03T17:35:12;4.80;54.30
22666;DHT22;11499;49.486;11.104;2023-04-03T17:37:38;4.80;54.00
22666;DHT22;11499;49.486;11.104;2023-04-03T17:40:04;4.80;53.70
22666;DHT22;11499;49.486;11.104;2023-04-03T17:42:29;4.60;54.30
22666;DHT22;11499;49.486;11.104;2023-04-03T17:44:56;4.50;54.70
22666;DHT22;11499;49.486;11.104;2023-04-03T17:50:19;4.20;55.30
22666;DHT22;11499;49.486;11.104;2023-04-03T17:52:44;3.90;56.50
22666;DHT22;11499;49.486;11.104;2023-04-03T17:55:10;3.70;56.90
22666;DHT22;11499;49.486;11.104;2023-04-03T17:57:37;3.70;56.70
22666;DHT22;11499;49.486;11.104;2023-04-03T18:00:04;3.70;56.70
22666;DHT22;11499;49.486;11.104;2023-04-03T18:02:30;3.60;56.80
22666;DHT22;11499;49.486;11.104;2023-04-03T18:04:56;3.50;57.10
22666;DHT22;11499;49.486;11.104;2023-04-03T18:07:23;3.50;57.30
22666;DHT22;11499;49.486;11.104;2023-04-03T18:09:50;3.40;57.10
22666;DHT22;11499;49.486;11.104;2023-04-03T18:12:16;3.30;56.80
22666;DHT22;11499;49.486;11.104;2023-04-03T18:17:41;3.20;57.00
22666;DHT22;11499;49.486;11.104;2023-04-03T18:20:07;3.20;57.00
22666;DHT22;11499;49.486;11.104;2023-04-03T18:22:34;3.10;57.30
22666;DHT22;11499;49.486;11.104;2023-04-03T18:25:00;3.10;57.20
22666;DHT22;11499;49.486;11.104;2023-04-03T18:27:26;3.00;56.90
22666;DHT22;11499;49.486;11.104;2023-04-03T18:29:55;3.00;57.20
22666;DHT22;11499;49.486;11.104;2023-04-03T18:32:22;3.00;57.20
22666;DHT22;11499;49.486;11.104;2023-04-03T18:34:48;2.90;57.40
22666;DHT22;11499;49.486;11.104;2023-04-03T18:37:15;2.90;57.40
22666;DHT22;11499;49.486;11.104;2023-04-03T18:39:40;2.80;57.50
22666;DHT22;11499;49.486;11.104;2023-04-03T18:45:27;2.80;57.00
22666;DHT22;11499;49.486;11.104;2023-04-03T18:47:53;3.00;56.90
22666;DHT22;11499;49.486;11.104;2023-04-03T18:50:19;2.70;56.90
22666;DHT22;11499;49.486;11.104;2023-04-03T18:52:45;2.60;57.00
22666;DHT22;11499;49.486;11.104;2023-04-03T18:55:15;2.60;57.40
22666;DHT22;11499;49.486;11.104;2023-04-03T18:57:43;2.60;57.30
22666;DHT22;11499;49.486;11.104;2023-04-03T19:00:09;2.50;57.10
22666;DHT22;11499;49.486;11.104;2023-04-03T19:02:35;2.50;57.10
22666;DHT22;11499;49.486;11.104;2023-04-03T19:05:02;2.50;57.40